sensor_id;sensor_type;location;lat;lon;timestamp;pressure;altitude;pressure_sealevel;temperature;humidity
82266;BME280;71866;53.340;-6.308;2023-10-19T00:01:20;97935.16;;;13.61;100.00
82266;BME280;71866;53.340;-6.308;2023-10-19T00:03:48;97928.59;;;13.57;99.95
82266;BME280;71866;53.340;-6.308;2023-10-19T00:06:15;97923.22;;;13.57;99.51
82266;BME280;71866;53.340;-6.308;2023-10-19T00:08:43;97920.31;;;13.59;99.56
82266;BME280;71866;53.340;-6.308;2023-10-19T00:11:10;97914.56;;;13.55;100.00
82266;BME280;71866;53.340;-6.308;2023-10-19T00:13:38;97922.41;;;13.57;100.00
82266;BME280;71866;53.340;-6.308;2023-10-19T00:16:09;97911.50;;;13.52;99.81
82266;BME280;71866;53.340;-6.308;2023-10-19T00:18:36;97912.69;;;13.56;99.51
82266;BME280;71866;53.340;-6.308;2023-10-19T00:21:02;97908.00;;;13.51;100.00
82266;BME280;71866;53.340;-6.308;2023-10-19T00:23:30;97901.72;;;13.57;100.00
82266;BME280;71866;53.340;-6.308;2023-10-19T00:26:02;97903.22;;;13.53;100.00
82266;BME280;71866;53.340;-6.308;2023-10-19T00:28:29;97894.34;;;13.53;100.00
82266;BME280;71866;53.340;-6.308;2023-10-19T00:30:56;97893.53;;;13.52;100.00
82266;BME280;71866;53.340;-6.308;2023-10-19T00:33:24;97890.75;;;13.59;100.00
82266;BME280;71866;53.340;-6.308;2023-10-19T00:35:51;97883.13;;;13.56;100.00
82266;BME280;71866;53.340;-6.308;2023-10-19T00:38:19;97886.06;;;13.54;99.77
82266;BME280;71866;53.340;-6.308;2023-10-19T00:40:50;97881.03;;;13.58;99.89
82266;BME280;71866;53.340;-6.308;2023-10-19T00:43:26;97874.03;;;13.57;99.74
82266;BME280;71866;53.340;-6.308;2023-10-19T00:45:54;97873.19;;;13.56;100.00
82266;BME280;71866;53.340;-6.308;2023-10-19T00:48:21;97875.88;;;13.56;99.66
82266;BME280;71866;53.340;-6.308;2023-10-19T00:50:48;97872.00;;;13.52;99.35
82266;BME280;71866;53.340;-6.308;2023-10-19T00:53:16;97865.00;;;13.51;100.00
82266;BME280;71866;53.340;-6.308;2023-10-19T00:55:42;97866.88;;;13.51;99.79
82266;BME280;71866;53.340;-6.308;2023-10-19T00:58:09;97867.09;;;13.49;100.00
82266;BME280;71866;53.340;-6.308;2023-10-19T01:00:37;97869.31;;;13.52;100.00
82266;BME280;71866;53.340;-6.308;2023-10-19T01:03:05;97855.06;;;13.52;99.46
82266;BME280;71866;53.340;-6.308;2023-10-19T01:05:34;97854.47;;;13.50;100.00
82266;BME280;71866;53.340;-6.308;2023-10-19T01:08:03;97856.81;;;13.46;99.83
82266;BME280;71866;53.340;-6.308;2023-10-19T01:10:30;97857.38;;;13.48;100.00
82266;BME280;71866;53.340;-6.308;2023-10-19T01:12:58;97860.66;;;13.50;99.70
82266;BME280;71866;53.340;-6.308;2023-10-19T01:15:24;97849.78;;;13.45;99.52
82266;BME280;71866;53.340;-6.308;2023-10-19T01:17:51;97845.69;;;13.42;99.25
82266;BME280;71866;53.340;-6.308;2023-10-19T01:20:21;97840.53;;;13.41;99.34
82266;BME280;71866;53.340;-6.308;2023-10-19T01:22:50;97832.00;;;13.44;99.67
82266;BME280;71866;53.340;-6.308;2023-10-19T01:25:18;97840.53;;;13.41;99.20
82266;BME280;71866;53.340;-6.308;2023-10-19T01:27:45;97833.06;;;13.43;99.65
82266;BME280;71866;53.340;-6.308;2023-10-19T01:30:11;97834.34;;;13.40;98.97
82266;BME280;71866;53.340;-6.308;2023-10-19T01:32:39;97826.94;;;13.36;99.63
82266;BME280;71866;53.340;-6.308;2023-10-19T01:35:06;97824.25;;;13.36;99.47
82266;BME280;71866;53.340;-6.308;2023-10-19T01:37:33;97827.75;;;13.36;98.96
82266;BME280;71866;53.340;-6.308;2023-10-19T01:40:00;97818.88;;;13.36;99.63
82266;BME280;71866;53.340;-6.308;2023-10-19T01:42:27;97813.13;;;13.32;99.79
82266;BME280;71866;53.340;-6.308;2023-10-19T01:44:54;97811.94;;;13.28;99.93
82266;BME280;71866;53.340;-6.308;2023-10-19T01:47:21;97805.41;;;13.24;99.51
82266;BME280;71866;53.340;-6.308;2023-10-19T01:49:48;97797.09;;;13.26;99.51
82266;BME280;71866;53.340;-6.308;2023-10-19T01:52:16;97800.03;;;13.24;98.90
82266;BME280;71866;53.340;-6.308;2023-10-19T01:54:42;97794.88;;;13.23;99.73
82266;BME280;71866;53.340;-6.308;2023-10-19T01:57:09;97786.81;;;13.23;99.79
82266;BME280;71866;53.340;-6.308;2023-10-19T01:59:37;97771.38;;;13.18;99.28
82266;BME280;71866;53.340;-6.308;2023-10-19T02:02:03;97780.16;;;13.25;99.76
82266;BME280;71866;53.340;-6.308;2023-10-19T02:04:30;97781.34;;;13.29;98.92
82266;BME280;71866;53.340;-6.308;2023-10-19T02:06:58;97774.34;;;13.28;98.92
82266;BME280;71866;53.340;-6.308;2023-10-19T02:09:26;97772.38;;;13.35;99.02
82266;BME280;71866;53.340;-6.308;2023-10-19T02:11:55;97772.75;;;13.39;98.56
82266;BME280;71866;53.340;-6.308;2023-10-19T02:14:23;97760.03;;;13.46;98.88
82266;BME280;71866;53.340;-6.308;2023-10-19T02:16:53;97763.31;;;13.48;98.61
82266;BME280;71866;53.340;-6.308;2023-10-19T02:19:21;97755.00;;;13.50;98.20
82266;BME280;71866;53.340;-6.308;2023-10-19T02:21:53;97743.69;;;13.48;97.98
82266;BME280;71866;53.340;-6.308;2023-10-19T02:24:21;97742.03;;;13.47;98.83
82266;BME280;71866;53.340;-6.308;2023-10-19T02:26:50;97730.25;;;13.48;98.86
82266;BME280;71866;53.340;-6.308;2023-10-19T02:29:18;97717.03;;;13.46;99.03
82266;BME280;71866;53.340;-6.308;2023-10-19T02:31:45;97719.38;;;13.54;99.18
82266;BME280;71866;53.340;-6.308;2023-10-19T02:34:12;97710.13;;;13.50;98.69
82266;BME280;71866;53.340;-6.308;2023-10-19T02:36:41;97714.56;;;13.44;98.31
82266;BME280;71866;53.340;-6.308;2023-10-19T02:39:09;97701.00;;;13.39;99.26
82266;BME280;71866;53.340;-6.308;2023-10-19T02:41:44;97695.25;;;13.36;99.05
82266;BME280;71866;53.340;-6.308;2023-10-19T02:44:14;97693.63;;;13.35;98.98
82266;BME280;71866;53.340;-6.308;2023-10-19T02:46:42;97679.59;;;13.33;99.80
82266;BME280;71866;53.340;-6.308;2023-10-19T02:49:12;97663.81;;;13.25;99.61
82266;BME280;71866;53.340;-6.308;2023-10-19T02:51:42;97654.34;;;13.22;100.00
82266;BME280;71866;53.340;-6.308;2023-10-19T02:54:11;97648.97;;;13.22;100.00
82266;BME280;71866;53.340;-6.308;2023-10-19T02:56:37;97649.03;;;13.15;100.00
82266;BME280;71866;53.340;-6.308;2023-10-19T02:59:05;97645.69;;;13.20;100.00
82266;BME280;71866;53.340;-6.308;2023-10-19T03:01:32;97634.72;;;13.22;100.00
82266;BME280;71866;53.340;-6.308;2023-10-19T03:04:00;97635.88;;;13.26;100.00
82266;BME280;71866;53.340;-6.308;2023-10-19T03:06:28;97628.66;;;13.26;100.00
82266;BME280;71866;53.340;-6.308;2023-10-19T03:08:54;97630.50;;;13.26;100.00
82266;BME280;71866;53.340;-6.308;2023-10-19T03:11:22;97618.13;;;13.25;100.00
82266;BME280;71866;53.340;-6.308;2023-10-19T03:13:49;97621.41;;;13.27;99.76
82266;BME280;71866;53.340;-6.308;2023-10-19T03:16:17;97607.72;;;13.28;99.93
82266;BME280;71866;53.340;-6.308;2023-10-19T03:18:46;97606.09;;;13.27;100.00
82266;BME280;71866;53.340;-6.308;2023-10-19T03:21:13;97600.97;;;13.26;100.00
82266;BME280;71866;53.340;-6.308;2023-10-19T03:23:41;97601.44;;;13.34;100.00
82266;BME280;71866;53.340;-6.308;2023-10-19T03:26:08;97600.38;;;13.35;99.43
82266;BME280;71866;53.340;-6.308;2023-10-19T03:28:35;97597.09;;;13.33;100.00
82266;BME280;71866;53.340;-6.308;2023-10-19T03:31:02;97586.94;;;13.35;99.93
82266;BME280;71866;53.340;-6.308;2023-10-19T03:33:29;97576.78;;;13.37;99.38
82266;BME280;71866;53.340;-6.308;2023-10-19T03:35:56;97586.38;;;13.45;99.86
82266;BME280;71866;53.340;-6.308;2023-10-19T03:38:23;97581.94;;;13.51;99.86
82266;BME280;71866;53.340;-6.308;2023-10-19T03:40:50;97574.09;;;13.49;98.44
82266;BME280;71866;53.340;-6.308;2023-10-19T03:43:20;97578.91;;;13.47;99.43
82266;BME280;71866;53.340;-6.308;2023-10-19T03:45:47;97569.31;;;13.51;98.93
82266;BME280;71866;53.340;-6.308;2023-10-19T03:48:14;97566.97;;;13.55;98.38
82266;BME280;71866;53.340;-6.308;2023-10-19T03:50:41;97560.19;;;13.52;98.33
82266;BME280;71866;53.340;-6.308;2023-10-19T03:53:08;97564.03;;;13.56;98.41
82266;BME280;71866;53.340;-6.308;2023-10-19T03:55:36;97551.06;;;13.53;98.44
82266;BME280;71866;53.340;-6.308;2023-10-19T03:58:03;97551.75;;;13.60;98.07
82266;BME280;71866;53.340;-6.308;2023-10-19T04:00:30;97553.63;;;13.60;98.48
82266;BME280;71866;53.340;-6.308;2023-10-19T04:02:57;97539.84;;;13.56;98.93
82266;BME280;71866;53.340;-6.308;2023-10-19T04:05:24;97542.66;;;13.61;98.47
82266;BME280;71866;53.340;-6.308;2023-10-19T04:07:52;97541.34;;;13.64;98.16
82266;BME280;71866;53.340;-6.308;2023-10-19T04:10:21;97544.63;;;13.66;98.94
82266;BME280;71866;53.340;-6.308;2023-10-19T04:12:47;97547.91;;;13.68;98.26
82266;BME280;71866;53.340;-6.308;2023-10-19T04:15:15;97539.59;;;13.69;97.78
82266;BME280;71866;53.340;-6.308;2023-10-19T04:17:43;97524.50;;;13.68;98.42
82266;BME280;71866;53.340;-6.308;2023-10-19T04:20:10;97532.34;;;13.70;98.07
82266;BME280;71866;53.340;-6.308;2023-10-19T04:22:38;97526.97;;;13.70;97.96
82266;BME280;71866;53.340;-6.308;2023-10-19T04:25:05;97524.75;;;13.67;97.91
82266;BME280;71866;53.340;-6.308;2023-10-19T04:27:31;97504.31;;;13.54;98.85
82266;BME280;71866;53.340;-6.308;2023-10-19T04:29:59;97511.44;;;13.60;98.94
82266;BME280;71866;53.340;-6.308;2023-10-19T04:32:26;97510.38;;;13.61;98.36
82266;BME280;71866;53.340;-6.308;2023-10-19T04:34:53;97505.25;;;13.60;99.08
82266;BME280;71866;53.340;-6.308;2023-10-19T04:37:20;97498.59;;;13.62;99.07
82266;BME280;71866;53.340;-6.308;2023-10-19T04:39:48;97493.44;;;13.61;98.47
82266;BME280;71866;53.340;-6.308;2023-10-19T04:42:15;97489.69;;;13.62;99.51
82266;BME280;71866;53.340;-6.308;2023-10-19T04:44:41;97495.06;;;13.62;98.79
82266;BME280;71866;53.340;-6.308;2023-10-19T04:47:09;97496.56;;;13.69;98.73
82266;BME280;71866;53.340;-6.308;2023-10-19T04:49:36;97487.94;;;13.67;98.28
82266;BME280;71866;53.340;-6.308;2023-10-19T04:52:04;97485.00;;;13.69;98.20
82266;BME280;71866;53.340;-6.308;2023-10-19T04:54:32;97480.44;;;13.69;98.64
82266;BME280;71866;53.340;-6.308;2023-10-19T04:57:00;97479.63;;;13.69;99.12
82266;BME280;71866;53.340;-6.308;2023-10-19T04:59:28;97478.31;;;13.71;98.10
82266;BME280;71866;53.340;-6.308;2023-10-19T05:01:57;97477.28;;;13.72;98.68
82266;BME280;71866;53.340;-6.308;2023-10-19T05:04:30;97470.03;;;13.73;98.30
82266;BME280;71866;53.340;-6.308;2023-10-19T05:06:57;97466.06;;;13.75;97.70
82266;BME280;71866;53.340;-6.308;2023-10-19T05:09:23;97462.56;;;13.63;98.70
82266;BME280;71866;53.340;-6.308;2023-10-19T05:11:51;97463.81;;;13.72;97.71
82266;BME280;71866;53.340;-6.308;2023-10-19T05:14:20;97460.31;;;13.72;98.73
82266;BME280;71866;53.340;-6.308;2023-10-19T05:16:46;97457.19;;;13.63;98.72
82266;BME280;71866;53.340;-6.308;2023-10-19T05:19:14;97453.50;;;13.53;98.47
82266;BME280;71866;53.340;-6.308;2023-10-19T05:21:41;97444.50;;;13.47;99.22
82266;BME280;71866;53.340;-6.308;2023-10-19T05:24:08;97447.09;;;13.42;99.14
82266;BME280;71866;53.340;-6.308;2023-10-19T05:26:35;97442.78;;;13.41;99.46
82266;BME280;71866;53.340;-6.308;2023-10-19T05:29:02;97441.72;;;13.42;99.54
82266;BME280;71866;53.340;-6.308;2023-10-19T05:31:29;97435.06;;;13.44;99.24
82266;BME280;71866;53.340;-6.308;2023-10-19T05:33:56;97445.44;;;13.53;98.88
82266;BME280;71866;53.340;-6.308;2023-10-19T05:36:23;97431.03;;;13.59;99.47
82266;BME280;71866;53.340;-6.308;2023-10-19T05:38:50;97427.44;;;13.53;98.86
82266;BME280;71866;53.340;-6.308;2023-10-19T05:41:17;97439.56;;;13.56;98.85
82266;BME280;71866;53.340;-6.308;2023-10-19T05:43:44;97428.09;;;13.60;98.88
82266;BME280;71866;53.340;-6.308;2023-10-19T05:46:12;97429.41;;;13.58;99.40
82266;BME280;71866;53.340;-6.308;2023-10-19T05:48:40;97426.38;;;13.54;99.63
82266;BME280;71866;53.340;-6.308;2023-10-19T05:51:06;97424.59;;;13.60;99.33
82266;BME280;71866;53.340;-6.308;2023-10-19T05:53:33;97417.50;;;13.54;98.81
82266;BME280;71866;53.340;-6.308;2023-10-19T05:56:01;97412.06;;;13.65;98.46
82266;BME280;71866;53.340;-6.308;2023-10-19T05:58:27;97409.44;;;13.54;99.66
82266;BME280;71866;53.340;-6.308;2023-10-19T06:00:59;97406.66;;;13.49;99.30
82266;BME280;71866;53.340;-6.308;2023-10-19T06:03:28;97396.03;;;13.42;100.00
82266;BME280;71866;53.340;-6.308;2023-10-19T06:05:56;97391.13;;;13.39;100.00
82266;BME280;71866;53.340;-6.308;2023-10-19T06:08:24;97390.78;;;13.35;100.00
82266;BME280;71866;53.340;-6.308;2023-10-19T06:10:52;97389.72;;;13.36;100.00
82266;BME280;71866;53.340;-6.308;2023-10-19T06:13:19;97385.97;;;13.37;100.00
82266;BME280;71866;53.340;-6.308;2023-10-19T06:15:50;97382.72;;;13.35;100.00
82266;BME280;71866;53.340;-6.308;2023-10-19T06:18:21;97385.16;;;13.37;100.00
82266;BME280;71866;53.340;-6.308;2023-10-19T06:20:48;97381.31;;;13.33;100.00
82266;BME280;71866;53.340;-6.308;2023-10-19T06:23:14;97380.84;;;13.36;100.00
82266;BME280;71866;53.340;-6.308;2023-10-19T06:25:42;97381.56;;;13.31;100.00
82266;BME280;71866;53.340;-6.308;2023-10-19T06:28:11;97382.25;;;13.38;99.71
82266;BME280;71866;53.340;-6.308;2023-10-19T06:30:39;97386.91;;;13.43;99.30
82266;BME280;71866;53.340;-6.308;2023-10-19T06:33:08;97385.88;;;13.44;100.00
82266;BME280;71866;53.340;-6.308;2023-10-19T06:35:36;97381.63;;;13.48;99.78
82266;BME280;71866;53.340;-6.308;2023-10-19T06:38:04;97385.38;;;13.47;99.34
82266;BME280;71866;53.340;-6.308;2023-10-19T06:40:34;97392.38;;;13.48;99.77
82266;BME280;71866;53.340;-6.308;2023-10-19T06:43:00;97391.09;;;13.51;99.99
82266;BME280;71866;53.340;-6.308;2023-10-19T06:45:27;97395.66;;;13.50;99.46
82266;BME280;71866;53.340;-6.308;2023-10-19T06:47:55;97391.56;;;13.48;99.70
82266;BME280;71866;53.340;-6.308;2023-10-19T06:50:24;97392.25;;;13.55;99.07
82266;BME280;71866;53.340;-6.308;2023-10-19T06:52:51;97390.47;;;13.60;99.74
82266;BME280;71866;53.340;-6.308;2023-10-19T06:55:19;97378.91;;;13.60;98.85
82266;BME280;71866;53.340;-6.308;2023-10-19T06:57:50;97392.34;;;13.60;98.64
82266;BME280;71866;53.340;-6.308;2023-10-19T07:00:20;97382.66;;;13.59;99.04
82266;BME280;71866;53.340;-6.308;2023-10-19T07:02:49;97397.16;;;13.58;98.74
82266;BME280;71866;53.340;-6.308;2023-10-19T07:05:17;97397.47;;;13.61;99.19
82266;BME280;71866;53.340;-6.308;2023-10-19T07:07:45;97393.25;;;13.65;98.08
82266;BME280;71866;53.340;-6.308;2023-10-19T07:10:13;97385.19;;;13.65;98.30
82266;BME280;71866;53.340;-6.308;2023-10-19T07:12:43;97398.16;;;13.68;97.98
82266;BME280;71866;53.340;-6.308;2023-10-19T07:15:10;97397.34;;;13.68;98.16
82266;BME280;71866;53.340;-6.308;2023-10-19T07:17:43;97386.25;;;13.64;97.92
82266;BME280;71866;53.340;-6.308;2023-10-19T07:20:11;97387.63;;;13.67;98.44
82266;BME280;71866;53.340;-6.308;2023-10-19T07:22:38;97378.28;;;13.69;98.74
82266;BME280;71866;53.340;-6.308;2023-10-19T07:25:06;97381.19;;;13.68;97.99
82266;BME280;71866;53.340;-6.308;2023-10-19T07:27:33;97386.09;;;13.71;99.12
82266;BME280;71866;53.340;-6.308;2023-10-19T07:30:04;97383.41;;;13.71;98.35
82266;BME280;71866;53.340;-6.308;2023-10-19T07:32:31;97390.19;;;13.73;98.92
82266;BME280;71866;53.340;-6.308;2023-10-19T07:34:58;97391.81;;;13.74;98.37
82266;BME280;71866;53.340;-6.308;2023-10-19T07:37:25;97389.13;;;13.74;98.75
82266;BME280;71866;53.340;-6.308;2023-10-19T07:39:52;97386.22;;;13.76;98.13
82266;BME280;71866;53.340;-6.308;2023-10-19T07:42:20;97394.28;;;13.76;98.46
82266;BME280;71866;53.340;-6.308;2023-10-19T07:44:47;97389.47;;;13.78;98.31
82266;BME280;71866;53.340;-6.308;2023-10-19T07:47:13;97382.47;;;13.77;98.32
82266;BME280;71866;53.340;-6.308;2023-10-19T07:49:41;97388.66;;;13.77;98.44
82266;BME280;71866;53.340;-6.308;2023-10-19T07:52:07;97385.97;;;13.77;98.27
82266;BME280;71866;53.340;-6.308;2023-10-19T07:54:35;97381.16;;;13.80;98.40
82266;BME280;71866;53.340;-6.308;2023-10-19T07:57:03;97377.44;;;13.81;98.76
82266;BME280;71866;53.340;-6.308;2023-10-19T07:59:29;97383.63;;;13.81;98.94
82266;BME280;71866;53.340;-6.308;2023-10-19T08:01:57;97376.38;;;13.82;98.39
82266;BME280;71866;53.340;-6.308;2023-10-19T08:04:24;97392.84;;;13.85;98.17
82266;BME280;71866;53.340;-6.308;2023-10-19T08:06:52;97380.19;;;13.86;98.24
82266;BME280;71866;53.340;-6.308;2023-10-19T08:09:18;97374.81;;;13.86;98.22
82266;BME280;71866;53.340;-6.308;2023-10-19T08:11:45;97378.91;;;13.88;98.37
82266;BME280;71866;53.340;-6.308;2023-10-19T08:14:12;97372.94;;;13.86;99.30
82266;BME280;71866;53.340;-6.308;2023-10-19T08:16:39;97380.78;;;13.88;99.78
82266;BME280;71866;53.340;-6.308;2023-10-19T08:19:07;97373.53;;;13.88;98.93
82266;BME280;71866;53.340;-6.308;2023-10-19T08:21:35;97377.94;;;13.94;98.92
82266;BME280;71866;53.340;-6.308;2023-10-19T08:24:02;97373.69;;;13.98;98.80
82266;BME280;71866;53.340;-6.308;2023-10-19T08:26:30;97365.78;;;13.92;99.29
82266;BME280;71866;53.340;-6.308;2023-10-19T08:28:57;97372.88;;;13.98;99.49
82266;BME280;71866;53.340;-6.308;2023-10-19T08:31:24;97370.75;;;14.00;99.06
82266;BME280;71866;53.340;-6.308;2023-10-19T08:33:51;97370.50;;;14.01;99.16
82266;BME280;71866;53.340;-6.308;2023-10-19T08:36:20;97363.84;;;14.04;99.14
82266;BME280;71866;53.340;-6.308;2023-10-19T08:38:47;97362.44;;;14.01;98.93
82266;BME280;71866;53.340;-6.308;2023-10-19T08:41:15;97353.66;;;14.06;99.31
82266;BME280;71866;53.340;-6.308;2023-10-19T08:43:43;97357.97;;;14.07;99.38
82266;BME280;71866;53.340;-6.308;2023-10-19T08:46:09;97370.94;;;14.10;98.74
82266;BME280;71866;53.340;-6.308;2023-10-19T08:48:37;97363.22;;;14.14;99.00
82266;BME280;71866;53.340;-6.308;2023-10-19T08:51:10;97355.97;;;14.14;99.02
82266;BME280;71866;53.340;-6.308;2023-10-19T08:53:37;97364.28;;;14.13;98.99
82266;BME280;71866;53.340;-6.308;2023-10-19T08:56:04;97361.91;;;14.16;98.64
82266;BME280;71866;53.340;-6.308;2023-10-19T08:58:32;97358.41;;;14.16;97.69
82266;BME280;71866;53.340;-6.308;2023-10-19T09:00:59;97356.78;;;14.15;98.06
82266;BME280;71866;53.340;-6.308;2023-10-19T09:03:25;97362.72;;;14.17;97.73
82266;BME280;71866;53.340;-6.308;2023-10-19T09:05:54;97357.59;;;14.15;97.61
82266;BME280;71866;53.340;-6.308;2023-10-19T09:08:21;97357.84;;;14.14;97.30
82266;BME280;71866;53.340;-6.308;2023-10-19T09:10:49;97358.97;;;14.18;97.63
82266;BME280;71866;53.340;-6.308;2023-10-19T09:13:16;97360.59;;;14.19;97.28
82266;BME280;71866;53.340;-6.308;2023-10-19T09:15:43;97365.16;;;14.18;97.96
82266;BME280;71866;53.340;-6.308;2023-10-19T09:18:17;97363.06;;;14.20;97.25
82266;BME280;71866;53.340;-6.308;2023-10-19T09:20:46;97365.50;;;14.22;97.00
82266;BME280;71866;53.340;-6.308;2023-10-19T09:23:13;97364.69;;;14.21;97.56
82266;BME280;71866;53.340;-6.308;2023-10-19T09:25:40;97367.63;;;14.20;96.81
82266;BME280;71866;53.340;-6.308;2023-10-19T09:28:08;97361.41;;;14.19;97.58
82266;BME280;71866;53.340;-6.308;2023-10-19T09:30:34;97361.66;;;14.18;97.00
82266;BME280;71866;53.340;-6.308;2023-10-19T09:33:02;97360.94;;;14.22;97.62
82266;BME280;71866;53.340;-6.308;2023-10-19T09:35:29;97354.41;;;14.18;96.57
82266;BME280;71866;53.340;-6.308;2023-10-19T09:37:56;97362.88;;;14.27;96.70
82266;BME280;71866;53.340;-6.308;2023-10-19T09:40:24;97354.56;;;14.28;96.63
82266;BME280;71866;53.340;-6.308;2023-10-19T09:42:53;97359.22;;;14.33;96.54
82266;BME280;71866;53.340;-6.308;2023-10-19T09:45:25;97365.41;;;14.33;96.41
82266;BME280;71866;53.340;-6.308;2023-10-19T09:47:55;97354.06;;;14.31;96.46
82266;BME280;71866;53.340;-6.308;2023-10-19T09:50:22;97356.03;;;14.36;96.04
82266;BME280;71866;53.340;-6.308;2023-10-19T09:52:50;97362.53;;;14.40;96.11
82266;BME280;71866;53.340;-6.308;2023-10-19T09:55:28;97352.94;;;14.44;96.64
82266;BME280;71866;53.340;-6.308;2023-10-19T09:58:12;97363.91;;;14.54;95.87
82266;BME280;71866;53.340;-6.308;2023-10-19T10:00:45;97360.47;;;14.59;95.53
82266;BME280;71866;53.340;-6.308;2023-10-19T10:06:11;97366.38;;;14.78;96.06
82266;BME280;71866;53.340;-6.308;2023-10-19T10:08:41;97372.25;;;14.91;94.43
82266;BME280;71866;53.340;-6.308;2023-10-19T10:11:20;97364.78;;;14.98;94.03
82266;BME280;71866;53.340;-6.308;2023-10-19T10:13:50;97365.69;;;15.04;93.90
82266;BME280;71866;53.340;-6.308;2023-10-19T10:16:23;97367.88;;;15.07;93.74
82266;BME280;71866;53.340;-6.308;2023-10-19T10:18:54;97363.03;;;15.09;92.92
82266;BME280;71866;53.340;-6.308;2023-10-19T10:21:23;97361.16;;;15.10;93.42
82266;BME280;71866;53.340;-6.308;2023-10-19T10:26:24;97360.41;;;15.14;92.82
82266;BME280;71866;53.340;-6.308;2023-10-19T10:29:21;97359.41;;;15.20;93.02
82266;BME280;71866;53.340;-6.308;2023-10-19T10:31:48;97371.09;;;15.26;92.90
82266;BME280;71866;53.340;-6.308;2023-10-19T10:37:12;97372.34;;;15.40;91.92
82266;BME280;71866;53.340;-6.308;2023-10-19T10:39:42;97362.97;;;15.48;92.29
82266;BME280;71866;53.340;-6.308;2023-10-19T10:42:09;97372.25;;;15.57;93.15
82266;BME280;71866;53.340;-6.308;2023-10-19T10:44:46;97370.22;;;15.64;92.42
82266;BME280;71866;53.340;-6.308;2023-10-19T10:47:21;97374.03;;;15.68;92.11
82266;BME280;71866;53.340;-6.308;2023-10-19T10:49:56;97373.84;;;15.75;92.73
82266;BME280;71866;53.340;-6.308;2023-10-19T10:52:30;97372.81;;;15.81;90.89
82266;BME280;71866;53.340;-6.308;2023-10-19T10:55:06;97381.78;;;15.86;90.92
82266;BME280;71866;53.340;-6.308;2023-10-19T10:57:33;97375.56;;;15.86;91.01
82266;BME280;71866;53.340;-6.308;2023-10-19T11:00:14;97379.31;;;15.85;91.27
82266;BME280;71866;53.340;-6.308;2023-10-19T11:02:43;97380.66;;;15.82;90.55
82266;BME280;71866;53.340;-6.308;2023-10-19T11:05:14;97372.81;;;15.81;91.69
82266;BME280;71866;53.340;-6.308;2023-10-19T11:10:35;97377.19;;;15.87;92.49
82266;BME280;71866;53.340;-6.308;2023-10-19T11:13:03;97372.97;;;15.96;92.89
82266;BME280;71866;53.340;-6.308;2023-10-19T11:15:30;97378.34;;;15.96;91.85
82266;BME280;71866;53.340;-6.308;2023-10-19T11:17:57;97379.97;;;15.97;92.61
82266;BME280;71866;53.340;-6.308;2023-10-19T11:20:25;97370.25;;;15.96;92.39
82266;BME280;71866;53.340;-6.308;2023-10-19T11:22:53;97368.72;;;16.00;92.65
82266;BME280;71866;53.340;-6.308;2023-10-19T11:25:25;97367.38;;;16.03;91.78
82266;BME280;71866;53.340;-6.308;2023-10-19T11:27:53;97373.28;;;16.00;91.85
82266;BME280;71866;53.340;-6.308;2023-10-19T11:30:24;97362.69;;;15.93;92.13
82266;BME280;71866;53.340;-6.308;2023-10-19T11:32:56;97377.06;;;15.99;92.61
82266;BME280;71866;53.340;-6.308;2023-10-19T11:35:30;97379.00;;;16.03;92.48
82266;BME280;71866;53.340;-6.308;2023-10-19T11:38:01;97379.25;;;16.02;92.54
82266;BME280;71866;53.340;-6.308;2023-10-19T11:40:34;97383.06;;;16.06;92.16
82266;BME280;71866;53.340;-6.308;2023-10-19T11:43:00;97369.06;;;16.09;90.68
82266;BME280;71866;53.340;-6.308;2023-10-19T11:45:27;97369.66;;;16.16;90.60
82266;BME280;71866;53.340;-6.308;2023-10-19T11:47:55;97374.53;;;16.19;91.58
82266;BME280;71866;53.340;-6.308;2023-10-19T11:50:21;97371.56;;;16.20;90.86
82266;BME280;71866;53.340;-6.308;2023-10-19T11:52:49;97368.63;;;16.22;89.48
82266;BME280;71866;53.340;-6.308;2023-10-19T11:55:15;97363.25;;;16.27;88.79
82266;BME280;71866;53.340;-6.308;2023-10-19T11:57:44;97376.88;;;16.37;89.14
82266;BME280;71866;53.340;-6.308;2023-10-19T12:00:13;97374.19;;;16.42;89.95
82266;BME280;71866;53.340;-6.308;2023-10-19T12:02:43;97370.66;;;16.37;89.38
82266;BME280;71866;53.340;-6.308;2023-10-19T12:05:13;97378.16;;;16.35;89.26
82266;BME280;71866;53.340;-6.308;2023-10-19T12:07:43;97374.97;;;16.38;88.94
82266;BME280;71866;53.340;-6.308;2023-10-19T12:10:11;97379.88;;;16.41;88.29
82266;BME280;71866;53.340;-6.308;2023-10-19T12:12:38;97376.34;;;16.40;88.68
82266;BME280;71866;53.340;-6.308;2023-10-19T12:15:09;97380.94;;;16.40;89.28
82266;BME280;71866;53.340;-6.308;2023-10-19T12:17:35;97383.13;;;16.43;87.63
82266;BME280;71866;53.340;-6.308;2023-10-19T12:20:02;97377.53;;;16.54;87.20
82266;BME280;71866;53.340;-6.308;2023-10-19T12:22:30;97368.91;;;16.57;84.24
82266;BME280;71866;53.340;-6.308;2023-10-19T12:24:57;97378.94;;;16.62;82.70
82266;BME280;71866;53.340;-6.308;2023-10-19T12:27:23;97369.75;;;16.63;85.23
82266;BME280;71866;53.340;-6.308;2023-10-19T12:29:51;97370.00;;;16.62;85.67
82266;BME280;71866;53.340;-6.308;2023-10-19T12:32:18;97377.81;;;16.58;85.89
82266;BME280;71866;53.340;-6.308;2023-10-19T12:34:45;97373.47;;;16.52;85.55
82266;BME280;71866;53.340;-6.308;2023-10-19T12:37:12;97376.94;;;16.47;86.29
82266;BME280;71866;53.340;-6.308;2023-10-19T12:39:39;97381.53;;;16.47;85.33
82266;BME280;71866;53.340;-6.308;2023-10-19T12:42:08;97379.63;;;16.47;86.59
82266;BME280;71866;53.340;-6.308;2023-10-19T12:44:35;97374.19;;;16.42;86.39
82266;BME280;71866;53.340;-6.308;2023-10-19T12:47:05;97373.94;;;16.44;86.84
82266;BME280;71866;53.340;-6.308;2023-10-19T12:49:37;97371.84;;;16.51;85.94
82266;BME280;71866;53.340;-6.308;2023-10-19T12:52:10;97374.28;;;16.52;86.61
82266;BME280;71866;53.340;-6.308;2023-10-19T12:54:40;97379.19;;;16.61;84.96
82266;BME280;71866;53.340;-6.308;2023-10-19T12:57:06;97377.91;;;16.68;84.09
82266;BME280;71866;53.340;-6.308;2023-10-19T12:59:34;97383.31;;;16.68;84.54
82266;BME280;71866;53.340;-6.308;2023-10-19T13:02:01;97377.91;;;16.68;84.11
82266;BME280;71866;53.340;-6.308;2023-10-19T13:04:29;97372.97;;;16.60;83.73